LFBG/CNG METAR and TAF weather

Enter ICAO airport designator
Station Type Date Time Source
LFBG METAR 2019/05/27 09:00 UTC NOAA

LFBG 270900Z AUTO 23006KT 200V260 9999 BKN007 OVC013 16/14 Q1015 TEMPO 4000 -RADZ BKN004


Station Type Date Time Source
LFBG Decoded METAR 2019/05/27 09:00 UTC NOAA

Cognac, France (LFBG) 45-40N 000-19W 31M
May 27, 2019 - 05:00 AM EDT / 2019.05.27 0900 UTC
Wind: from the SW (230 degrees) at 7 MPH (6 KT) (direction variable):0
Visibility: greater than 7 mile(s):0
Sky conditions: overcast
Temperature: 60 F (16 C)
Dew Point: 57 F (14 C)
Relative Humidity: 87%
Pressure (altimeter): 29.97 in. Hg (1015 hPa)
ob: LFBG 270900Z AUTO 23006KT 200V260 9999 BKN007 OVC013 16/14 Q1015 TEMPO 4000 -RADZ BKN004
cycle: 9

Station Type Date Time Source
LFBG TAF 2019/05/27 09:03 UTC NOAA

TAF TAF LFBG 270800Z 2709/2809 24005KT 6000 OVC020
TEMPO 2709/2711 4000 -RADZ BKN004
TEMPO 2711/2712 4000 -RA BKN012
TEMPO 2713/2716 4000 -SHRA

Example: see airport list